createdAt,value
2017-07-18T00:00:02.449Z,15.5
2017-07-18T00:05:02.734Z,15.3
2017-07-18T00:10:03.373Z,15.3
2017-07-18T00:15:02.774Z,15.1
2017-07-18T00:20:02.430Z,15.1
2017-07-18T00:25:02.978Z,15.1
2017-07-18T00:30:02.591Z,15.1
2017-07-18T00:35:03.179Z,15.1
2017-07-18T00:40:02.507Z,15.1
2017-07-18T00:45:03.107Z,15.0
2017-07-18T00:50:02.470Z,14.8
2017-07-18T00:55:03.229Z,14.8
2017-07-18T01:00:02.501Z,14.8
2017-07-18T01:05:02.946Z,14.6
2017-07-18T01:10:02.612Z,14.5
2017-07-18T01:15:03.256Z,14.5
2017-07-18T01:20:02.647Z,14.3
2017-07-18T01:25:03.413Z,14.3
2017-07-18T01:30:02.908Z,14.3
2017-07-18T01:35:02.300Z,14.3
2017-07-18T01:40:02.931Z,14.3
2017-07-18T01:45:03.325Z,14.3
2017-07-18T01:50:02.790Z,14.3
2017-07-18T01:55:02.334Z,14.3
2017-07-18T02:00:02.813Z,14.1
2017-07-18T02:05:02.569Z,14.1
2017-07-18T02:10:03.118Z,14.1
2017-07-18T02:15:02.453Z,13.8
2017-07-18T02:20:02.790Z,14.0
2017-07-18T02:25:03.398Z,13.8
2017-07-18T02:30:02.724Z,13.6
2017-07-18T02:35:02.506Z,13.8
2017-07-18T02:40:03.018Z,13.8
2017-07-18T02:45:02.637Z,13.8
2017-07-18T02:50:03.188Z,13.6
2017-07-18T02:55:02.588Z,13.6
2017-07-18T03:00:03.039Z,13.6
2017-07-18T03:05:02.591Z,13.5
2017-07-18T03:10:03.271Z,13.5
2017-07-18T03:15:02.777Z,13.5
2017-07-18T03:20:03.357Z,13.5
2017-07-18T03:25:02.617Z,13.5
2017-07-18T03:30:03.048Z,13.5
2017-07-18T03:35:02.673Z,13.5
2017-07-18T03:40:03.163Z,13.5
2017-07-18T03:45:02.575Z,13.3
2017-07-18T03:50:02.927Z,13.3
2017-07-18T03:55:02.457Z,13.3
2017-07-18T04:00:02.771Z,13.3
2017-07-18T04:05:03.211Z,13.1
2017-07-18T04:10:02.580Z,13.3
2017-07-18T04:15:03.044Z,13.5
2017-07-18T04:20:02.374Z,13.5
2017-07-18T04:25:02.887Z,13.6
2017-07-18T04:30:02.414Z,13.6
2017-07-18T04:35:02.936Z,14.0
2017-07-18T04:40:02.420Z,14.3
2017-07-18T04:45:02.879Z,14.3
2017-07-18T04:50:02.371Z,14.8
2017-07-18T04:55:02.934Z,15.0
2017-07-18T05:00:02.303Z,14.8
2017-07-18T05:05:02.732Z,15.0
2017-07-18T05:10:03.247Z,15.1
2017-07-18T05:15:02.520Z,15.0
2017-07-18T05:20:03.079Z,15.0
2017-07-18T05:25:02.661Z,15.0
2017-07-18T05:30:02.916Z,14.8
2017-07-18T05:35:03.250Z,15.0
2017-07-18T05:40:02.777Z,15.6
2017-07-18T05:45:02.367Z,15.8
2017-07-18T05:50:02.782Z,16.2
2017-07-18T05:55:03.146Z,16.7
2017-07-18T06:00:02.507Z,16.7
2017-07-18T06:05:02.882Z,16.6
2017-07-18T06:10:03.254Z,16.6
2017-07-18T06:15:02.716Z,16.7
2017-07-18T06:20:03.017Z,17.0
2017-07-18T06:25:02.302Z,17.2
2017-07-18T06:30:02.609Z,17.0
2017-07-18T06:35:03.192Z,17.1
2017-07-18T06:40:02.716Z,17.3
2017-07-18T06:45:03.200Z,17.5
2017-07-18T06:50:02.642Z,17.8
2017-07-18T06:55:02.984Z,17.7
2017-07-18T07:00:02.330Z,17.7
2017-07-18T07:05:02.787Z,17.7
2017-07-18T07:10:03.258Z,17.8
2017-07-18T07:15:02.697Z,18.5
2017-07-18T07:20:03.123Z,18.5
2017-07-18T07:25:02.637Z,18.6
2017-07-18T07:30:03.060Z,18.8
2017-07-18T07:35:02.522Z,19.1
2017-07-18T07:40:02.938Z,19.3
2017-07-18T07:45:02.308Z,20.0
2017-07-18T07:50:02.749Z,20.2
2017-07-18T07:55:03.026Z,20.3
2017-07-18T08:00:02.433Z,20.8
2017-07-18T08:05:02.776Z,21.5
2017-07-18T08:10:02.257Z,21.8
2017-07-18T08:15:02.715Z,22.7
2017-07-18T08:20:02.271Z,23.1
2017-07-18T08:25:02.749Z,22.7
2017-07-18T08:30:03.090Z,23.6
2017-07-18T08:35:02.716Z,23.7
2017-07-18T08:40:03.043Z,24.5
2017-07-18T08:45:02.478Z,25.0
2017-07-18T08:50:02.791Z,25.1
2017-07-18T08:55:03.176Z,24.0
2017-07-18T09:00:02.511Z,24.8
2017-07-18T09:05:02.960Z,25.5
2017-07-18T09:10:02.329Z,25.5
2017-07-18T09:15:02.835Z,24.6
2017-07-18T09:20:03.241Z,25.2
2017-07-18T09:25:02.677Z,25.2
2017-07-18T09:30:03.111Z,25.3
2017-07-18T09:35:02.546Z,26.2
2017-07-18T09:40:03.045Z,26.2
2017-07-18T09:45:02.386Z,25.8
2017-07-18T09:50:02.861Z,26.8
2017-07-18T09:55:02.350Z,27.8
2017-07-18T10:00:02.613Z,27.8
2017-07-18T10:05:02.973Z,27.8
2017-07-18T10:10:02.350Z,26.8
2017-07-18T10:15:02.762Z,26.7
2017-07-18T10:20:03.119Z,26.8
2017-07-18T10:25:02.702Z,26.2
2017-07-18T10:30:03.154Z,26.0
2017-07-18T10:35:02.567Z,27.2
2017-07-18T10:40:02.938Z,27.7
2017-07-18T10:45:03.215Z,27.7
2017-07-18T10:50:02.675Z,26.7
2017-07-18T10:55:03.025Z,26.6
2017-07-18T11:00:02.483Z,26.8
2017-07-18T11:05:03.067Z,27.1
2017-07-18T11:10:02.515Z,27.3
2017-07-18T11:15:02.951Z,27.5
2017-07-18T11:20:02.350Z,27.5
2017-07-18T11:25:02.686Z,28.1
2017-07-18T11:30:02.968Z,29.0
2017-07-18T11:35:02.276Z,27.3
2017-07-18T11:40:02.809Z,29.2
2017-07-18T11:45:02.268Z,27.5
2017-07-18T11:50:02.622Z,27.5
2017-07-18T11:55:03.101Z,28.1
2017-07-18T12:00:02.597Z,29.1
2017-07-18T12:05:02.919Z,27.8
2017-07-18T12:10:02.295Z,30.0
2017-07-18T12:15:02.634Z,27.8
2017-07-18T12:20:03.006Z,29.2
2017-07-18T12:25:02.456Z,27.3
2017-07-18T12:30:02.775Z,28.8
2017-07-18T12:35:03.355Z,30.2
2017-07-18T12:40:02.717Z,28.3
2017-07-18T12:45:03.104Z,28.3
2017-07-18T12:50:02.506Z,30.2
2017-07-18T12:55:02.984Z,28.7
2017-07-18T13:00:02.410Z,30.1
2017-07-18T13:05:02.855Z,29.5
2017-07-18T13:10:02.364Z,28.3
2017-07-18T13:15:02.806Z,30.0
2017-07-18T13:20:02.372Z,28.2
2017-07-18T13:25:02.694Z,30.1
2017-07-18T13:30:03.186Z,29.7
2017-07-18T13:35:02.632Z,30.8
2017-07-18T13:40:03.160Z,28.7
2017-07-18T13:45:02.469Z,30.2
2017-07-18T13:50:03.010Z,30.0
2017-07-18T13:55:02.403Z,30.6
2017-07-18T14:00:02.773Z,29.7
2017-07-18T14:05:03.053Z,30.1
2017-07-18T14:10:02.487Z,28.5
2017-07-18T14:15:02.950Z,29.2
2017-07-18T14:20:02.465Z,30.1
2017-07-18T14:25:02.928Z,30.2
2017-07-18T14:30:03.212Z,31.1
2017-07-18T14:35:02.529Z,31.6
2017-07-18T14:40:02.904Z,29.7
2017-07-18T14:45:02.386Z,28.7
2017-07-18T14:50:02.883Z,28.5
2017-07-18T14:55:03.157Z,27.5
2017-07-18T15:00:02.515Z,30.2
2017-07-18T15:05:02.885Z,32.2
2017-07-18T15:10:02.745Z,31.2
2017-07-18T15:15:03.195Z,32.5
2017-07-18T15:20:02.536Z,30.8
2017-07-18T15:25:02.948Z,29.6
2017-07-18T15:30:02.275Z,30.3
2017-07-18T15:35:02.624Z,31.1
2017-07-18T15:40:03.132Z,32.5
2017-07-18T15:45:02.576Z,31.7
2017-07-18T15:50:02.930Z,31.1
2017-07-18T15:55:02.382Z,31.3
2017-07-18T16:00:02.748Z,30.3
2017-07-18T16:05:02.260Z,30.8
2017-07-18T16:10:02.581Z,30.1
2017-07-18T16:15:03.085Z,29.2
2017-07-18T16:20:02.517Z,30.1
2017-07-18T16:25:02.825Z,30.6
2017-07-18T16:30:03.176Z,29.7
2017-07-18T16:35:02.512Z,29.7
2017-07-18T16:40:02.853Z,29.5
2017-07-18T16:45:03.148Z,29.7
2017-07-18T16:50:02.436Z,29.7
2017-07-18T16:55:02.840Z,30.3
2017-07-18T17:00:02.381Z,30.2
2017-07-18T17:05:02.751Z,30.3
2017-07-18T17:10:03.263Z,27.7
2017-07-18T17:15:02.556Z,27.7
2017-07-18T17:20:02.907Z,27.7
2017-07-18T17:25:03.197Z,27.5
2017-07-18T17:30:02.694Z,27.8
2017-07-18T17:35:03.028Z,28.5
2017-07-18T17:40:02.404Z,30.0
2017-07-18T17:45:02.747Z,30.1
2017-07-18T17:50:03.088Z,30.2
2017-07-18T17:55:02.522Z,30.2
2017-07-18T18:00:02.974Z,29.7
2017-07-18T18:05:02.268Z,29.0
2017-07-18T18:10:02.752Z,29.2
2017-07-18T18:15:03.006Z,28.5
2017-07-18T18:20:02.360Z,29.1
2017-07-18T18:25:02.626Z,28.0
2017-07-18T18:30:02.909Z,27.7
2017-07-18T18:35:02.441Z,28.1
2017-07-18T18:40:02.755Z,27.7
2017-07-18T18:45:03.144Z,26.7
2017-07-18T18:50:02.654Z,26.0
2017-07-18T18:55:02.950Z,25.3
2017-07-18T19:00:03.245Z,24.6
2017-07-18T19:05:02.541Z,24.2
2017-07-18T19:10:02.926Z,23.8
2017-07-18T19:15:02.378Z,23.7
2017-07-18T19:20:02.716Z,23.3
2017-07-18T19:25:03.003Z,23.2
2017-07-18T19:30:02.321Z,23.1
2017-07-18T19:35:02.836Z,22.7
2017-07-18T19:40:03.204Z,22.7
2017-07-18T19:45:02.614Z,22.5
2017-07-18T19:50:03.088Z,22.3
2017-07-18T19:55:02.376Z,22.2
2017-07-18T20:00:02.709Z,22.2
2017-07-18T20:05:03.250Z,22.0
2017-07-18T20:10:02.777Z,21.8
2017-07-18T20:15:03.076Z,21.7
2017-07-18T20:20:02.368Z,21.7
2017-07-18T20:25:02.697Z,21.6
2017-07-18T20:30:03.243Z,21.3
2017-07-18T20:35:02.710Z,21.3
2017-07-18T20:40:03.184Z,21.2
2017-07-18T20:45:02.694Z,21.2
2017-07-18T20:50:02.994Z,21.2
2017-07-18T20:55:02.362Z,21.2
2017-07-18T21:00:02.686Z,21.0
2017-07-18T21:05:03.129Z,20.8
2017-07-18T21:10:02.562Z,20.8
2017-07-18T21:15:03.057Z,20.7
2017-07-18T21:20:02.497Z,20.7
2017-07-18T21:25:03.053Z,20.7
2017-07-18T21:30:02.373Z,20.6
2017-07-18T21:35:02.691Z,20.3
2017-07-18T21:40:03.204Z,20.3
2017-07-18T21:45:02.530Z,20.3
2017-07-18T21:50:02.996Z,20.2
2017-07-18T21:55:02.538Z,20.2
2017-07-18T22:00:02.954Z,20.2
2017-07-18T22:05:02.460Z,20.2
2017-07-18T22:10:02.979Z,20.2
2017-07-18T22:15:02.388Z,20.1
2017-07-18T22:20:03.118Z,20.1
2017-07-18T22:25:02.485Z,20.1
2017-07-18T22:30:02.828Z,20.0
2017-07-18T22:35:02.283Z,20.1
2017-07-18T22:40:02.773Z,20.0
2017-07-18T22:45:03.035Z,20.0
2017-07-18T22:50:02.515Z,19.7
2017-07-18T22:55:02.856Z,19.7
2017-07-18T23:00:03.418Z,19.7
2017-07-18T23:05:03.225Z,19.7
2017-07-18T23:10:02.616Z,19.7
2017-07-18T23:15:02.942Z,20.0
2017-07-18T23:20:02.446Z,20.0
2017-07-18T23:25:02.901Z,20.0
2017-07-18T23:30:02.344Z,19.7
2017-07-18T23:35:02.709Z,20.0
2017-07-18T23:40:03.148Z,19.7
2017-07-18T23:45:02.472Z,19.7
2017-07-18T23:50:03.155Z,19.7
2017-07-18T23:55:02.612Z,19.7
